Time;durP1;ratioP1;P1;durP2;ratioP2;P2;SDS_P1;SDS_P2;PMS_P1;PMS_P2;Temp;Humidity;BMP_temperature;BMP_pressure;BME280_temperature;BME280_humidity;BME280_pressure;Samples;Min_cycle;Max_cycle;Signal;HPM_P1;HPM_P2
2022/11/13 00:01:20;;;;;;;27.13;18.98;;;20.20;99.90;;;;;;4991750;28;20483;-83
2022/11/13 00:03:47;;;;;;;27.17;20.70;;;20.30;99.90;;;;;;4996190;28;20472;-82
2022/11/13 00:06:15;;;;;;;24.00;19.45;;;20.30;99.90;;;;;;4995572;28;20892;-82
2022/11/13 00:08:43;;;;;;;26.90;20.90;;;20.20;99.90;;;;;;5010799;28;20829;-78
2022/11/13 00:11:17;;;;;;;27.92;20.30;;;20.20;99.90;;;;;;5007044;28;20413;-82
2022/11/13 00:13:45;;;;;;;25.33;20.58;;;20.30;99.90;;;;;;4999539;28;20393;-81
2022/11/13 00:16:15;;;;;;;23.20;18.87;;;20.40;99.90;;;;;;4994979;28;20812;-81
2022/11/13 00:18:43;;;;;;;24.52;19.08;;;20.50;99.90;;;;;;4981062;28;20777;-82
2022/11/13 00:21:19;;;;;;;20.98;18.73;;;20.60;99.90;;;;;;4993881;28;20404;-82
2022/11/13 00:23:46;;;;;;;25.73;19.30;;;20.60;99.90;;;;;;4979896;28;20439;-83
2022/11/13 00:26:16;;;;;;;26.13;20.83;;;20.70;99.90;;;;;;5002324;28;20399;-82
2022/11/13 00:28:44;;;;;;;32.65;20.15;;;20.70;99.90;;;;;;5007089;28;20907;-83
2022/11/13 00:31:13;;;;;;;29.47;18.80;;;20.80;99.90;;;;;;4994241;28;20408;-82
2022/11/13 00:33:41;;;;;;;24.13;17.63;;;21.00;99.90;;;;;;4996329;28;20382;-85
2022/11/13 00:36:26;;;;;;;21.73;17.23;;;21.10;99.90;;;;;;4999260;28;20451;-84
2022/11/13 00:38:53;;;;;;;20.27;16.23;;;21.10;99.90;;;;;;4996256;28;20406;-83
2022/11/13 00:41:21;;;;;;;18.90;16.35;;;21.00;99.90;;;;;;5001932;28;20393;-84
2022/11/13 00:43:48;;;;;;;20.07;16.70;;;20.90;99.90;;;;;;4995223;28;20406;-82
2022/11/13 00:46:15;;;;;;;21.33;18.40;;;20.70;99.90;;;;;;5006125;28;20391;-82
2022/11/13 00:48:42;;;;;;;20.95;17.83;;;20.70;99.90;;;;;;5005234;28;20468;-83
2022/11/13 00:51:09;;;;;;;22.05;19.25;;;20.60;99.90;;;;;;4996621;28;20415;-84
2022/11/13 00:53:36;;;;;;;21.17;18.83;;;20.50;99.90;;;;;;5003130;28;20381;-83
2022/11/13 00:56:04;;;;;;;20.80;17.70;;;20.50;99.90;;;;;;5005410;28;20919;-81
2022/11/13 00:58:31;;;;;;;21.90;19.00;;;20.40;99.90;;;;;;5013153;28;20375;-82
2022/11/13 01:01:05;;;;;;;21.92;18.80;;;20.40;99.90;;;;;;4999397;28;20397;-82
2022/11/13 01:03:32;;;;;;;21.17;18.90;;;20.40;99.90;;;;;;5002467;28;20459;-81
2022/11/13 01:05:59;;;;;;;25.30;21.98;;;20.40;99.90;;;;;;4994834;28;20411;-82
2022/11/13 01:08:26;;;;;;;25.85;22.33;;;20.70;99.90;;;;;;4997749;28;20752;-82
2022/11/13 01:10:53;;;;;;;21.58;19.27;;;21.00;99.90;;;;;;5003715;28;20408;-83
2022/11/13 01:13:20;;;;;;;21.88;19.52;;;21.30;99.90;;;;;;5003161;28;20767;-82
2022/11/13 01:15:47;;;;;;;20.25;17.85;;;21.60;99.90;;;;;;5006949;28;20392;-83
2022/11/13 01:18:14;;;;;;;19.58;17.48;;;22.00;99.90;;;;;;4996092;28;20767;-82
2022/11/13 01:20:41;;;;;;;17.35;15.55;;;22.40;99.90;;;;;;5001936;28;20871;-79
2022/11/13 01:23:08;;;;;;;16.00;14.35;;;22.70;99.90;;;;;;4999097;28;20392;-80
2022/11/13 01:25:35;;;;;;;18.77;14.10;;;23.10;99.90;;;;;;4999108;28;20394;-79
2022/11/13 01:28:15;;;;;;;13.63;12.32;;;23.60;99.90;;;;;;5108004;27;20372;-81
2022/11/13 01:30:42;;;;;;;13.88;11.30;;;24.20;99.90;;;;;;5103656;28;20385;-82
2022/11/13 01:33:09;;;;;;;12.20;10.90;;;24.40;99.90;;;;;;5104005;28;20390;-80
2022/11/13 01:35:36;;;;;;;18.42;10.50;;;24.80;99.90;;;;;;5099747;28;20767;-79
2022/11/13 01:38:03;;;;;;;10.68;9.57;;;24.80;99.90;;;;;;5098854;28;20804;-79
2022/11/13 01:40:30;;;;;;;10.20;9.20;;;24.90;99.90;;;;;;5095110;28;20887;-78
2022/11/13 01:42:57;;;;;;;10.03;8.80;;;25.20;99.90;;;;;;5107939;28;20379;-81
2022/11/13 01:45:57;;;;;;;9.52;8.48;;;25.80;99.90;;;;;;5106795;28;20383;-82
2022/11/13 01:49:10;;;;;;;10.97;8.43;;;26.40;99.90;;;;;;5092932;28;20454;-82
2022/11/13 01:51:52;;;;;;;9.27;7.45;;;26.70;99.90;;;;;;5084572;28;20381;-82
2022/11/13 01:54:24;;;;;;;10.50;7.13;;;27.20;99.90;;;;;;5103033;28;20368;-81
2022/11/13 01:56:52;;;;;;;7.13;6.40;;;27.30;99.90;;;;;;5098151;28;20379;-82
2022/11/13 01:59:23;;;;;;;7.97;6.30;;;27.20;99.90;;;;;;5102191;28;20442;-82
2022/11/13 02:01:50;;;;;;;225.85;46.38;;;27.10;99.90;;;;;;5107623;28;20450;-85
2022/11/13 02:04:17;;;;;;;9.45;6.32;;;26.90;99.90;;;;;;5098215;28;20519;-84
2022/11/13 02:07:00;;;;;;;56.40;7.50;;;27.00;99.90;;;;;;5107070;28;20404;-81
2022/11/13 02:09:32;;;;;;;6.03;4.80;;;27.20;99.90;;;;;;5107418;28;20414;-82
2022/11/13 02:12:00;;;;;;;5.60;5.10;;;27.10;99.90;;;;;;5103054;28;20385;-81
2022/11/13 02:14:28;;;;;;;5.75;5.18;;;26.90;99.90;;;;;;5100494;28;20380;-83
2022/11/13 02:17:07;;;;;;;5.90;5.22;;;27.40;99.90;;;;;;5106990;28;20360;-82
2022/11/13 02:19:43;;;;;;;5.93;5.32;;;28.10;99.90;;;;;;5107366;28;20462;-84
2022/11/13 02:22:21;;;;;;;6.13;5.50;;;28.60;99.90;;;;;;5107173;28;20356;-84
2022/11/13 02:24:49;;;;;;;8.53;5.20;;;29.10;99.90;;;;;;5107009;28;20372;-85
2022/11/13 02:27:49;;;;;;;6.13;4.60;;;29.50;99.90;;;;;;5105677;28;20486;-87
2022/11/13 02:30:23;;;;;;;4.63;3.80;;;29.50;99.90;;;;;;5054180;28;20418;-86
2022/11/13 02:32:53;;;;;;;4.80;4.10;;;29.50;99.90;;;;;;5064744;28;20383;-87
2022/11/13 02:35:32;;;;;;;3.90;3.60;;;29.90;99.50;;;;;;5063389;28;20375;-85
2022/11/13 02:38:02;;;;;;;4.57;3.65;;;30.40;98.70;;;;;;5059309;28;20422;-81
2022/11/13 02:40:30;;;;;;;5.30;3.55;;;30.70;98.20;;;;;;5050625;28;20384;-84
2022/11/13 02:42:57;;;;;;;4.55;3.35;;;30.90;96.80;;;;;;5050715;28;20474;-86
2022/11/13 02:45:24;;;;;;;6.43;3.28;;;31.00;96.30;;;;;;5037301;28;20401;-83
2022/11/13 02:47:51;;;;;;;8.95;3.30;;;30.90;95.30;;;;;;5043271;28;20419;-84
2022/11/13 02:50:18;;;;;;;57.92;7.20;;;30.50;96.40;;;;;;5050870;28;20433;-84
2022/11/13 02:52:46;;;;;;;4.00;3.10;;;30.20;97.10;;;;;;5041307;28;20921;-82
2022/11/13 02:55:14;;;;;;;3.70;3.10;;;30.40;96.60;;;;;;5039618;28;20427;-89
2022/11/13 02:57:41;;;;;;;3.20;2.90;;;30.40;96.90;;;;;;5039121;28;20404;-88
2022/11/13 03:00:08;;;;;;;5.18;2.80;;;30.20;95.80;;;;;;5050741;28;20471;-90
2022/11/13 03:02:35;;;;;;;3.83;2.53;;;29.80;96.90;;;;;;5050493;28;20398;-86
2022/11/13 03:05:02;;;;;;;3.10;2.47;;;29.50;97.00;;;;;;5048338;28;20875;-85
2022/11/13 03:07:30;;;;;;;3.33;2.70;;;29.20;97.30;;;;;;5061928;28;20495;-85
2022/11/13 03:09:57;;;;;;;3.80;2.57;;;28.70;98.30;;;;;;5086207;28;20387;-85
2022/11/13 03:12:24;;;;;;;4.57;2.40;;;28.40;99.30;;;;;;5073198;28;20439;-86
2022/11/13 03:14:51;;;;;;;3.55;2.38;;;28.30;99.30;;;;;;5089260;28;20732;-85
2022/11/13 03:17:18;;;;;;;3.95;2.85;;;28.60;99.70;;;;;;5082903;28;20369;-87
2022/11/13 03:19:45;;;;;;;2.80;2.28;;;29.30;99.20;;;;;;5082757;28;20381;-84
2022/11/13 03:22:12;;;;;;;3.33;2.50;;;30.10;97.70;;;;;;5092818;28;20782;-84
2022/11/13 03:24:39;;;;;;;4.10;2.22;;;30.60;96.70;;;;;;5087315;28;20757;-89
2022/11/13 03:27:06;;;;;;;3.53;2.10;;;30.50;95.80;;;;;;5091219;28;20887;-88
2022/11/13 03:29:33;;;;;;;2.60;2.40;;;30.10;95.70;;;;;;5077115;28;20420;-87
2022/11/13 03:32:02;;;;;;;3.45;2.40;;;29.90;96.40;;;;;;5085544;28;20418;-86
2022/11/13 03:34:29;;;;;;;4.07;2.40;;;29.70;96.60;;;;;;5081212;28;20417;-84
2022/11/13 03:36:55;;;;;;;5.63;2.65;;;29.60;96.30;;;;;;5080254;28;20390;-84
2022/11/13 03:39:23;;;;;;;3.95;2.53;;;29.20;96.70;;;;;;5083505;28;20368;-86
2022/11/13 03:41:50;;;;;;;4.97;2.63;;;28.80;97.20;;;;;;5078528;28;20416;-85
2022/11/13 03:44:17;;;;;;;4.35;2.60;;;28.30;98.20;;;;;;5080896;28;20704;-87
2022/11/13 03:46:44;;;;;;;3.15;2.50;;;28.00;99.10;;;;;;5079680;28;20726;-87
2022/11/13 03:49:10;;;;;;;4.18;2.80;;;27.90;99.90;;;;;;5076664;28;20475;-89
2022/11/13 03:51:38;;;;;;;5.10;2.70;;;27.80;99.90;;;;;;5092409;28;20372;-89
2022/11/13 03:54:05;;;;;;;3.30;2.70;;;27.80;99.90;;;;;;5091222;28;20819;-87
2022/11/13 03:56:31;;;;;;;7.35;2.95;;;27.80;99.90;;;;;;5080593;28;20453;-85
2022/11/13 03:58:58;;;;;;;5.97;2.75;;;27.60;99.90;;;;;;5079166;28;20406;-85
2022/11/13 04:01:25;;;;;;;3.03;2.50;;;27.50;99.90;;;;;;5085106;28;20388;-84
2022/11/13 04:03:52;;;;;;;2.65;2.42;;;27.60;99.90;;;;;;5080190;28;20401;-84
2022/11/13 04:06:20;;;;;;;4.55;2.67;;;27.60;99.90;;;;;;5088053;28;20491;-83
2022/11/13 04:08:47;;;;;;;3.22;2.10;;;27.60;99.90;;;;;;5083048;28;20386;-84
2022/11/13 04:11:14;;;;;;;3.42;1.80;;;27.70;99.90;;;;;;5086433;28;20400;-85
2022/11/13 04:13:41;;;;;;;2.08;1.40;;;28.00;99.60;;;;;;5079716;28;20802;-85
2022/11/13 04:16:08;;;;;;;1.52;1.15;;;28.00;98.20;;;;;;5085164;28;20970;-88
2022/11/13 04:18:35;;;;;;;2.50;1.30;;;27.80;97.90;;;;;;5092509;28;20412;-85
2022/11/13 04:21:04;;;;;;;2.88;1.30;;;27.70;98.10;;;;;;5083091;28;20382;-85
2022/11/13 04:23:31;;;;;;;1.95;1.30;;;27.90;98.30;;;;;;5092294;28;20397;-87
2022/11/13 04:25:58;;;;;;;4.95;1.50;;;28.50;97.60;;;;;;5085231;28;20792;-91
2022/11/13 04:28:25;;;;;;;6.05;1.63;;;28.90;96.80;;;;;;5090365;28;20372;-86
2022/11/13 04:30:55;;;;;;;1.50;1.20;;;29.30;96.90;;;;;;5092144;28;20375;-88
2022/11/13 04:33:23;;;;;;;1.77;1.25;;;29.50;96.30;;;;;;5084592;28;20394;-90
2022/11/13 04:35:50;;;;;;;2.30;1.00;;;29.50;96.10;;;;;;5091451;28;20365;-86
2022/11/13 04:38:17;;;;;;;1.35;1.05;;;29.40;95.30;;;;;;5091473;28;20774;-86
2022/11/13 04:40:44;;;;;;;2.70;1.00;;;29.30;95.60;;;;;;5083998;28;20466;-90
2022/11/13 04:43:11;;;;;;;2.22;1.13;;;29.30;95.40;;;;;;5091843;28;20372;-86
2022/11/13 04:45:38;;;;;;;2.85;1.00;;;29.30;95.20;;;;;;5091455;28;20376;-87
2022/11/13 04:48:05;;;;;;;2.92;1.15;;;29.50;94.80;;;;;;5091501;28;20436;-86
2022/11/13 04:50:32;;;;;;;3.47;1.30;;;29.40;95.40;;;;;;5091066;28;20372;-84
2022/11/13 04:52:59;;;;;;;1.87;1.00;;;29.00;95.20;;;;;;5085770;28;20397;-87
2022/11/13 04:55:26;;;;;;;1.83;1.00;;;29.10;95.80;;;;;;5082836;28;20364;-90
2022/11/13 04:57:54;;;;;;;2.00;0.80;;;29.30;95.00;;;;;;5069415;28;20473;-88
2022/11/13 05:00:21;;;;;;;2.05;1.40;;;29.70;94.20;;;;;;5081658;28;20407;-91
2022/11/13 05:02:48;;;;;;;1.20;0.90;;;29.80;94.10;;;;;;5091920;28;20383;-90
2022/11/13 05:05:15;;;;;;;2.25;0.82;;;29.60;93.70;;;;;;5081394;28;20373;-90
2022/11/13 05:07:42;;;;;;;1.40;0.80;;;29.20;94.40;;;;;;5094543;28;21261;-88
2022/11/13 05:10:09;;;;;;;2.88;0.90;;;29.00;94.90;;;;;;5087599;28;20838;-91
2022/11/13 05:12:36;;;;;;;3.15;0.90;;;28.90;94.90;;;;;;5086558;28;20464;-89
2022/11/13 05:15:04;;;;;;;1.63;0.90;;;29.00;94.30;;;;;;5093414;28;20380;-89
2022/11/13 05:17:31;;;;;;;1.30;0.87;;;28.90;94.70;;;;;;5094108;28;20455;-92
2022/11/13 05:19:58;;;;;;;1.58;0.95;;;28.60;95.00;;;;;;5093344;28;20372;-90
2022/11/13 05:22:25;;;;;;;1.75;0.80;;;28.50;96.00;;;;;;5094142;28;20709;-90
2022/11/13 05:24:52;;;;;;;3.70;0.90;;;28.60;95.60;;;;;;5093964;28;20891;-92
2022/11/13 05:27:19;;;;;;;1.30;0.85;;;28.40;95.00;;;;;;5086186;28;20413;-85
2022/11/13 05:29:46;;;;;;;1.75;0.90;;;28.10;96.20;;;;;;5086251;28;20425;-89
2022/11/13 05:32:13;;;;;;;2.90;1.00;;;27.80;96.50;;;;;;5092179;28;20875;-88
2022/11/13 05:34:40;;;;;;;1.80;0.90;;;27.60;97.40;;;;;;5091651;28;20401;-86
2022/11/13 05:37:08;;;;;;;1.10;0.97;;;27.40;97.50;;;;;;5091298;28;20404;-89
2022/11/13 05:39:35;;;;;;;1.27;0.80;;;27.40;97.90;;;;;;5090943;28;20368;-87
2022/11/13 05:42:02;;;;;;;1.42;1.10;;;27.30;97.90;;;;;;5090822;28;20377;-91
2022/11/13 05:44:29;;;;;;;1.55;1.08;;;27.30;98.60;;;;;;5091315;28;20415;-90
2022/11/13 05:46:56;;;;;;;1.37;1.00;;;27.20;98.60;;;;;;5089629;28;20400;-87
2022/11/13 05:49:23;;;;;;;2.10;1.40;;;27.10;98.30;;;;;;5070465;28;20390;-84
2022/11/13 05:51:50;;;;;;;2.35;1.20;;;27.10;98.80;;;;;;5080683;28;20407;-83
2022/11/13 05:54:16;;;;;;;1.35;1.20;;;27.00;99.00;;;;;;5080009;28;20469;-86
2022/11/13 05:56:43;;;;;;;1.80;1.00;;;27.10;98.70;;;;;;5090236;28;20927;-83
2022/11/13 05:59:10;;;;;;;2.50;1.17;;;27.70;97.90;;;;;;5074894;28;20382;-82
2022/11/13 06:01:39;;;;;;;1.98;1.20;;;28.40;97.30;;;;;;5077214;28;20389;-84
2022/11/13 06:04:07;;;;;;;1.88;1.05;;;28.90;96.20;;;;;;5089081;28;20372;-83
2022/11/13 06:06:35;;;;;;;1.20;1.10;;;28.90;95.40;;;;;;5076994;28;20493;-84
2022/11/13 06:09:03;;;;;;;5.05;1.20;;;28.50;95.50;;;;;;5089786;28;20752;-84
2022/11/13 06:11:31;;;;;;;2.10;1.10;;;28.10;95.90;;;;;;5080022;28;20388;-83
2022/11/13 06:13:59;;;;;;;1.75;1.10;;;27.70;97.20;;;;;;5087429;28;20402;-83
2022/11/13 06:16:34;;;;;;;1.60;1.13;;;27.60;97.80;;;;;;5087701;28;20386;-84
2022/11/13 06:19:04;;;;;;;1.97;1.30;;;27.50;98.10;;;;;;5086381;28;20782;-82
2022/11/13 06:21:34;;;;;;;3.30;1.40;;;27.30;97.90;;;;;;5093417;28;20408;-84
2022/11/13 06:24:01;;;;;;;4.22;1.40;;;27.00;98.60;;;;;;5085438;28;20392;-83
2022/11/13 06:26:32;;;;;;;2.55;1.20;;;27.00;99.00;;;;;;5087454;28;20404;-84
2022/11/13 06:29:00;;;;;;;4.00;1.40;;;26.50;99.80;;;;;;5084296;28;20380;-83
2022/11/13 06:31:31;;;;;;;2.90;1.40;;;26.40;99.90;;;;;;5083811;28;20998;-82
2022/11/13 06:33:59;;;;;;;2.35;1.40;;;26.20;99.90;;;;;;5079112;28;20390;-82
2022/11/13 06:36:28;;;;;;;3.92;1.50;;;26.20;99.90;;;;;;5083987;28;20392;-83
2022/11/13 06:38:55;;;;;;;1.88;1.50;;;26.00;99.90;;;;;;5086178;28;20376;-81
2022/11/13 06:41:28;;;;;;;3.47;1.60;;;26.00;99.90;;;;;;5080598;28;20428;-82
2022/11/13 06:43:55;;;;;;;6.10;2.25;;;26.00;99.90;;;;;;5090444;28;20372;-83
2022/11/13 06:46:24;;;;;;;2.95;1.40;;;25.90;99.90;;;;;;5091653;28;20736;-82
2022/11/13 06:48:52;;;;;;;2.63;1.60;;;25.80;99.90;;;;;;5092925;28;20415;-82
2022/11/13 06:51:24;;;;;;;4.13;1.80;;;25.80;99.90;;;;;;5091719;28;20513;-82
2022/11/13 06:53:52;;;;;;;7.25;2.15;;;25.80;99.90;;;;;;5073740;28;20394;-84
2022/11/13 06:56:20;;;;;;;4.07;1.70;;;25.70;99.90;;;;;;5083434;28;20736;-82
2022/11/13 06:58:47;;;;;;;3.00;1.58;;;25.70;99.90;;;;;;5074477;28;20386;-83
2022/11/13 07:01:19;;;;;;;3.80;1.90;;;25.60;99.90;;;;;;5074899;28;20881;-83
2022/11/13 07:03:47;;;;;;;7.07;2.00;;;25.60;99.90;;;;;;5093118;28;20372;-83
2022/11/13 07:06:22;;;;;;;2.55;1.60;;;25.50;99.90;;;;;;5082925;28;20444;-83
2022/11/13 07:08:49;;;;;;;15.33;2.50;;;25.30;99.90;;;;;;5081894;28;20455;-85
2022/11/13 07:11:21;;;;;;;2.72;1.52;;;25.20;99.90;;;;;;5093632;28;20368;-82
2022/11/13 07:13:49;;;;;;;4.10;1.60;;;25.10;99.90;;;;;;5076987;28;20382;-84
2022/11/13 07:16:16;;;;;;;3.03;1.77;;;25.00;99.90;;;;;;5073089;28;20385;-83
2022/11/13 07:18:48;;;;;;;3.90;1.60;;;25.00;99.90;;;;;;5083361;28;20378;-85
2022/11/13 07:21:15;;;;;;;1.67;1.50;;;24.90;99.90;;;;;;5084044;28;20467;-84
2022/11/13 07:23:42;;;;;;;3.72;1.88;;;24.80;99.90;;;;;;5089856;28;20819;-84
2022/11/13 07:26:10;;;;;;;2.88;1.75;;;24.70;99.90;;;;;;5075841;28;20402;-85
2022/11/13 07:28:38;;;;;;;2.92;1.73;;;24.70;99.90;;;;;;5084012;28;21000;-82
2022/11/13 07:31:05;;;;;;;4.50;1.90;;;24.70;99.90;;;;;;5092335;28;20832;-82
2022/11/13 07:33:33;;;;;;;3.75;1.80;;;24.60;99.90;;;;;;5077494;28;20412;-81
2022/11/13 07:36:00;;;;;;;2.65;1.70;;;24.50;99.90;;;;;;5080798;28;20458;-84
2022/11/13 07:38:27;;;;;;;3.83;1.88;;;24.40;99.90;;;;;;5092497;28;20383;-83
2022/11/13 07:40:56;;;;;;;3.03;1.80;;;24.40;99.90;;;;;;5092954;28;20848;-83
2022/11/13 07:43:23;;;;;;;3.97;1.88;;;24.30;99.90;;;;;;5092052;28;20902;-83
2022/11/13 07:45:53;;;;;;;2.97;1.90;;;24.30;99.90;;;;;;5091991;28;20446;-82
2022/11/13 07:48:23;;;;;;;2.35;1.67;;;24.30;99.90;;;;;;5089896;28;20434;-80
2022/11/13 07:50:50;;;;;;;2.97;1.90;;;24.20;99.90;;;;;;5079499;28;20364;-86
2022/11/13 07:53:18;;;;;;;3.05;1.75;;;24.20;99.90;;;;;;5092640;28;20388;-83
2022/11/13 07:55:45;;;;;;;3.93;1.97;;;24.10;99.90;;;;;;5089667;28;20376;-81
2022/11/13 07:58:13;;;;;;;2.97;1.60;;;24.10;99.90;;;;;;5089472;28;20436;-84
2022/11/13 08:00:40;;;;;;;3.40;1.63;;;24.10;99.90;;;;;;5085127;28;20389;-83
2022/11/13 08:03:09;;;;;;;3.47;1.70;;;24.00;99.90;;;;;;5076224;28;20390;-82
2022/11/13 08:05:37;;;;;;;3.30;1.75;;;24.00;99.90;;;;;;5081505;28;20477;-81
2022/11/13 08:08:04;;;;;;;4.75;1.90;;;23.90;99.90;;;;;;5074890;28;20611;-81
2022/11/13 08:10:32;;;;;;;3.97;2.10;;;23.80;99.90;;;;;;5091823;28;20375;-82
2022/11/13 08:13:04;;;;;;;3.45;1.77;;;23.70;99.90;;;;;;5086041;28;20481;-85
2022/11/13 08:15:32;;;;;;;3.92;1.90;;;23.50;99.90;;;;;;5079447;28;20395;-82
2022/11/13 08:18:02;;;;;;;4.60;2.05;;;23.30;99.90;;;;;;5085336;28;20387;-82
2022/11/13 08:20:30;;;;;;;4.18;2.53;;;23.10;99.90;;;;;;5073399;28;20393;-82
2022/11/13 08:22:58;;;;;;;4.40;2.60;;;22.90;99.90;;;;;;5083734;28;20467;-83
2022/11/13 08:25:26;;;;;;;3.63;2.30;;;22.80;99.90;;;;;;5091000;28;20443;-82
2022/11/13 08:27:53;;;;;;;5.50;3.58;;;22.60;99.90;;;;;;5078562;28;20442;-86
2022/11/13 08:30:22;;;;;;;7.13;3.47;;;22.50;99.90;;;;;;5071827;28;20385;-86
2022/11/13 08:32:50;;;;;;;4.65;2.50;;;22.40;99.90;;;;;;5071370;28;20378;-85
2022/11/13 08:35:18;;;;;;;5.30;2.30;;;22.30;99.90;;;;;;5085062;28;20774;-86
2022/11/13 08:37:45;;;;;;;4.05;2.17;;;22.30;99.90;;;;;;5070356;28;20397;-92
2022/11/13 08:40:12;;;;;;;3.97;2.28;;;22.20;99.90;;;;;;5081822;28;20817;-87
2022/11/13 08:42:39;;;;;;;4.45;2.20;;;22.20;99.90;;;;;;5076086;28;20430;-87
2022/11/13 08:45:08;;;;;;;3.95;2.60;;;22.20;99.90;;;;;;5080106;28;20699;-89
2022/11/13 08:47:35;;;;;;;4.53;2.50;;;22.10;99.90;;;;;;5090308;28;20483;-89
2022/11/13 08:50:03;;;;;;;6.28;3.38;;;22.00;99.90;;;;;;5091475;28;20860;-87
2022/11/13 08:52:30;;;;;;;4.57;2.60;;;21.90;99.90;;;;;;5087152;28;20472;-88
2022/11/13 08:54:57;;;;;;;4.80;2.50;;;21.80;99.90;;;;;;5089036;28;20381;-91
2022/11/13 08:57:24;;;;;;;4.90;2.58;;;21.70;99.90;;;;;;5082102;28;20383;-89
2022/11/13 08:59:52;;;;;;;4.73;2.70;;;21.70;99.90;;;;;;5076661;28;20401;-90
2022/11/13 09:02:19;;;;;;;5.72;2.75;;;21.60;99.90;;;;;;5079833;28;20413;-89
2022/11/13 09:04:46;;;;;;;5.65;3.50;;;21.50;99.90;;;;;;5086706;28;20385;-86
2022/11/13 09:07:13;;;;;;;8.65;5.00;;;21.50;99.90;;;;;;5079575;28;20412;-88
2022/11/13 09:09:40;;;;;;;5.10;3.60;;;21.50;99.90;;;;;;5072629;28;20382;-89
2022/11/13 09:12:07;;;;;;;5.73;3.17;;;21.50;99.90;;;;;;5090722;28;20388;-88
2022/11/13 09:14:36;;;;;;;3.83;2.80;;;21.50;99.90;;;;;;5078457;28;20942;-85
2022/11/13 09:17:05;;;;;;;3.93;2.43;;;21.50;99.90;;;;;;5090670;28;20384;-87
2022/11/13 09:19:32;;;;;;;5.50;2.50;;;21.50;99.90;;;;;;5080458;28;20382;-86
2022/11/13 09:21:59;;;;;;;4.53;2.60;;;21.50;99.90;;;;;;5077274;28;20396;-86
2022/11/13 09:24:26;;;;;;;4.40;2.30;;;21.50;99.90;;;;;;5090441;28;20376;-85
2022/11/13 09:26:53;;;;;;;2.57;2.10;;;21.50;99.90;;;;;;5091302;28;20404;-86
2022/11/13 09:29:22;;;;;;;4.80;2.40;;;21.50;99.90;;;;;;5082261;28;20394;-86
2022/11/13 09:31:49;;;;;;;3.10;2.20;;;21.60;99.90;;;;;;5075555;28;20385;-87
2022/11/13 09:34:16;;;;;;;4.23;2.50;;;21.60;99.90;;;;;;5083445;28;20737;-89
2022/11/13 09:36:43;;;;;;;3.78;2.38;;;21.60;99.90;;;;;;5080717;28;20385;-85
2022/11/13 09:39:10;;;;;;;4.32;2.10;;;21.60;99.90;;;;;;5078919;28;20384;-91
2022/11/13 09:41:41;;;;;;;3.28;1.90;;;21.60;99.90;;;;;;5088475;28;20450;-84
2022/11/13 09:44:33;;;;;;;2.80;2.15;;;21.50;99.90;;;;;;5077037;28;20471;-84
2022/11/13 09:47:21;;;;;;;2.65;1.90;;;21.50;99.90;;;;;;5085910;28;20398;-86
2022/11/13 09:50:13;;;;;;;2.77;2.00;;;21.50;99.90;;;;;;5094973;28;20384;-85
2022/11/13 09:52:42;;;;;;;4.03;2.05;;;21.50;99.90;;;;;;5092834;28;20447;-92
2022/11/13 09:55:13;;;;;;;2.38;1.95;;;21.50;99.90;;;;;;5083735;28;20422;-86
2022/11/13 09:58:04;;;;;;;2.97;1.80;;;21.50;99.90;;;;;;5085248;28;20393;-84
2022/11/13 10:00:34;;;;;;;4.22;1.80;;;21.40;99.90;;;;;;5088011;28;20391;-87
2022/11/13 10:03:38;;;;;;;5.78;2.03;;;21.40;99.90;;;;;;5088078;28;20388;-85
2022/11/13 10:06:08;;;;;;;3.15;1.80;;;21.30;99.90;;;;;;5081988;28;20378;-83
2022/11/13 10:09:14;;;;;;;3.00;1.90;;;21.20;99.90;;;;;;5085060;28;20396;-87
2022/11/13 10:12:06;;;;;;;3.33;2.00;;;21.00;99.90;;;;;;5074991;28;20408;-89
2022/11/13 10:14:42;;;;;;;2.88;2.05;;;21.00;99.90;;;;;;5074203;28;20390;-86
2022/11/13 10:17:18;;;;;;;5.38;2.63;;;20.90;99.90;;;;;;5073524;28;20459;-85
2022/11/13 10:20:01;;;;;;;4.57;2.53;;;21.00;99.90;;;;;;5079964;28;20434;-86
2022/11/13 10:22:36;;;;;;;3.92;2.55;;;21.00;99.90;;;;;;5077304;28;20963;-86
2022/11/13 10:25:19;;;;;;;4.60;2.88;;;21.00;99.90;;;;;;5072224;28;20717;-85
2022/11/13 10:27:57;;;;;;;3.70;2.33;;;21.10;99.90;;;;;;5073476;28;20443;-86
2022/11/13 10:33:48;;;;;;;4.47;2.03;;;21.10;99.90;;;;;;5089485;28;20395;-86
2022/11/13 10:36:24;;;;;;;3.83;2.08;;;21.20;99.90;;;;;;5090178;28;20391;-89
2022/11/13 10:39:04;;;;;;;3.20;1.83;;;21.20;99.90;;;;;;5088049;28;20396;-85
2022/11/13 10:41:32;;;;;;;2.83;2.07;;;21.20;99.90;;;;;;5074903;28;20746;-88
2022/11/13 10:44:00;;;;;;;3.33;2.10;;;21.20;99.90;;;;;;5093243;28;20380;-86
2022/11/13 10:46:29;;;;;;;3.38;2.00;;;21.20;99.90;;;;;;5087708;28;20391;-85
2022/11/13 10:49:10;;;;;;;4.00;2.10;;;21.20;99.90;;;;;;5077696;28;20446;-86
2022/11/13 10:51:38;;;;;;;3.17;2.15;;;21.20;99.90;;;;;;5073839;28;20498;-85
2022/11/13 10:54:27;;;;;;;3.67;2.20;;;21.20;99.90;;;;;;5079820;28;20399;-86
2022/11/13 10:57:06;;;;;;;3.28;2.30;;;21.20;99.90;;;;;;5078193;28;20357;-84
2022/11/13 10:59:41;;;;;;;5.07;2.10;;;21.20;99.90;;;;;;5078716;28;20480;-85
2022/11/13 11:02:22;;;;;;;3.90;2.05;;;21.10;99.90;;;;;;5081305;28;20382;-88
2022/11/13 11:05:00;;;;;;;3.58;2.00;;;21.10;99.90;;;;;;5079283;28;20378;-86
2022/11/13 11:07:27;;;;;;;2.50;1.73;;;21.00;99.90;;;;;;5073164;28;20871;-86
2022/11/13 11:09:54;;;;;;;4.43;2.10;;;20.90;99.90;;;;;;5088418;28;20376;-88
2022/11/13 11:12:24;;;;;;;2.08;1.70;;;20.90;99.90;;;;;;5092605;28;20415;-87
2022/11/13 11:14:59;;;;;;;4.13;1.88;;;20.90;99.90;;;;;;5076197;28;20913;-85
2022/11/13 11:17:45;;;;;;;3.00;1.80;;;20.90;99.90;;;;;;5094972;28;20408;-88
2022/11/13 11:20:24;;;;;;;2.50;1.90;;;20.80;99.90;;;;;;5085068;28;20376;-86
2022/11/13 11:23:00;;;;;;;3.17;2.00;;;20.80;99.90;;;;;;5086340;28;20385;-87
2022/11/13 11:26:02;;;;;;;2.53;1.88;;;20.80;99.90;;;;;;5098328;28;20360;-86
2022/11/13 11:28:50;;;;;;;3.78;1.90;;;20.80;99.90;;;;;;5092258;28;20388;-86
2022/11/13 11:31:41;;;;;;;3.88;1.80;;;20.80;99.90;;;;;;5088621;28;20373;-87
2022/11/13 11:34:26;;;;;;;2.75;1.83;;;20.80;99.90;;;;;;5081073;28;20403;-87
2022/11/13 11:37:01;;;;;;;3.00;1.90;;;20.80;99.90;;;;;;5095880;28;20357;-86
2022/11/13 11:39:50;;;;;;;3.47;1.73;;;20.80;99.90;;;;;;5086097;28;20384;-88
2022/11/13 11:42:35;;;;;;;2.67;1.55;;;20.80;99.90;;;;;;5092660;28;20811;-88
2022/11/13 11:45:17;;;;;;;2.70;1.70;;;20.80;99.90;;;;;;5095824;28;20365;-85
2022/11/13 11:47:44;;;;;;;3.15;1.70;;;20.80;99.90;;;;;;5095173;28;20899;-85
2022/11/13 11:50:17;;;;;;;2.53;1.80;;;20.80;99.90;;;;;;5094930;28;20442;-87
2022/11/13 11:53:12;;;;;;;2.77;1.60;;;20.80;99.90;;;;;;5095173;28;20650;-85
2022/11/13 11:55:58;;;;;;;3.50;1.90;;;20.70;99.90;;;;;;5090180;28;20447;-86
2022/11/13 11:58:52;;;;;;;2.85;1.60;;;20.70;99.90;;;;;;5093987;28;20376;-86
2022/11/13 12:01:41;;;;;;;3.35;1.88;;;20.70;99.90;;;;;;5094539;28;20421;-84
2022/11/13 12:04:41;;;;;;;2.80;1.90;;;20.80;99.90;;;;;;5093959;28;20369;-85
2022/11/13 12:07:27;;;;;;;4.55;2.00;;;20.80;99.90;;;;;;5091780;28;20786;-85
2022/11/13 12:10:02;;;;;;;3.17;1.70;;;20.80;99.90;;;;;;5091019;28;20475;-86
2022/11/13 12:13:15;;;;;;;2.83;1.80;;;20.80;99.90;;;;;;5090906;28;20455;-85
2022/11/13 12:16:03;;;;;;;3.50;1.58;;;20.90;99.90;;;;;;5050387;28;20423;-85
2022/11/13 12:18:50;;;;;;;3.63;1.83;;;20.80;99.90;;;;;;5050538;28;20387;-87
2022/11/13 12:21:33;;;;;;;2.13;1.70;;;20.80;99.90;;;;;;5050379;28;20391;-88
2022/11/13 12:24:30;;;;;;;2.35;1.52;;;20.90;99.90;;;;;;5039345;28;20387;-85
2022/11/13 12:27:25;;;;;;;3.50;1.70;;;20.90;99.90;;;;;;5048306;28;20560;-87
2022/11/13 12:30:16;;;;;;;2.13;1.70;;;20.80;99.90;;;;;;5042261;28;20393;-83
2022/11/13 12:33:17;;;;;;;2.83;1.88;;;20.90;99.90;;;;;;5048947;28;20392;-86
2022/11/13 12:35:49;;;;;;;4.32;1.90;;;20.90;99.90;;;;;;5040605;28;20379;-87
2022/11/13 12:38:36;;;;;;;7.25;2.60;;;20.80;99.90;;;;;;5046443;28;20445;-86
2022/11/13 12:41:06;;;;;;;7.43;3.08;;;20.80;99.90;;;;;;5048518;28;20983;-86
2022/11/13 12:43:57;;;;;;;9.70;3.38;;;20.50;99.90;;;;;;5048893;28;20394;-88
2022/11/13 12:46:34;;;;;;;4.80;2.72;;;20.30;99.90;;;;;;5048801;28;20989;-89
2022/11/13 12:49:04;;;;;;;5.50;2.60;;;20.20;99.90;;;;;;5035093;28;20411;-88
2022/11/13 12:51:41;;;;;;;9.30;3.60;;;20.10;99.90;;;;;;5050362;28;20382;-82
2022/11/13 12:54:09;;;;;;;10.20;3.70;;;19.90;99.90;;;;;;5078690;28;20452;-89
2022/11/13 12:56:37;;;;;;;7.30;3.80;;;19.80;99.90;;;;;;5076937;28;20391;-88
2022/11/13 12:59:19;;;;;;;6.72;3.58;;;19.80;99.90;;;;;;5080593;28;20400;-90
2022/11/13 13:01:55;;;;;;;6.20;3.60;;;19.70;99.90;;;;;;5061294;28;20780;-90
2022/11/13 13:04:28;;;;;;;6.35;3.97;;;19.70;99.90;;;;;;5078387;28;20893;-87
2022/11/13 13:06:58;;;;;;;5.53;3.63;;;19.70;99.90;;;;;;5075263;28;20402;-86
2022/11/13 13:09:31;;;;;;;7.38;4.18;;;19.70;99.90;;;;;;5063865;28;20394;-86